createdAt,value
2022-10-26T00:00:38.839Z,996.60
2022-10-26T00:01:38.887Z,996.63
2022-10-26T00:02:38.727Z,996.62
2022-10-26T00:03:38.630Z,996.65
2022-10-26T00:04:38.577Z,996.66
2022-10-26T00:06:47.736Z,996.64
2022-10-26T00:07:48.698Z,996.65
2022-10-26T00:08:48.618Z,996.61
2022-10-26T00:09:48.542Z,996.66
2022-10-26T00:10:48.492Z,996.59
2022-10-26T00:11:48.421Z,996.59
2022-10-26T00:12:48.728Z,996.62
2022-10-26T00:13:48.282Z,996.66
2022-10-26T00:14:48.257Z,996.64
2022-10-26T00:15:48.226Z,996.62
2022-10-26T00:16:48.077Z,996.66
2022-10-26T00:17:48.422Z,996.63
2022-10-26T00:18:47.965Z,996.64
2022-10-26T00:19:47.900Z,996.60
2022-10-26T00:20:47.822Z,996.62
2022-10-26T00:21:47.786Z,996.61
2022-10-26T00:22:47.712Z,996.64
2022-10-26T00:23:47.647Z,996.62
2022-10-26T00:24:47.598Z,996.61
2022-10-26T00:25:47.512Z,996.58
2022-10-26T00:26:47.466Z,996.63
2022-10-26T00:27:47.684Z,996.60
2022-10-26T00:28:47.318Z,996.68
2022-10-26T00:29:47.261Z,996.70
2022-10-26T00:30:47.180Z,996.68
2022-10-26T00:31:47.128Z,996.70
2022-10-26T00:32:47.046Z,996.66
2022-10-26T00:33:46.986Z,996.66
2022-10-26T00:34:46.931Z,996.68
2022-10-26T00:35:47.172Z,996.66
2022-10-26T00:36:46.798Z,996.70
2022-10-26T00:37:47.006Z,996.71
2022-10-26T00:38:46.670Z,996.68
2022-10-26T00:39:46.594Z,996.64
2022-10-26T00:40:46.596Z,996.64
2022-10-26T00:41:46.490Z,996.61
2022-10-26T00:42:46.655Z,996.61
2022-10-26T00:43:46.356Z,996.58
2022-10-26T00:44:46.283Z,996.56
2022-10-26T00:45:46.225Z,996.60
2022-10-26T00:46:46.147Z,996.60
2022-10-26T00:47:46.088Z,996.61
2022-10-26T00:48:46.027Z,996.55
2022-10-26T00:49:45.964Z,996.54
2022-10-26T00:50:45.891Z,996.53
2022-10-26T00:51:45.840Z,996.50
2022-10-26T00:52:45.894Z,996.56
2022-10-26T00:53:45.719Z,996.58
2022-10-26T00:54:45.644Z,996.55
2022-10-26T00:55:45.587Z,996.54
2022-10-26T00:56:45.511Z,996.52
2022-10-26T00:57:45.452Z,996.55
2022-10-26T00:58:45.381Z,996.51
2022-10-26T01:00:06.293Z,996.51
2022-10-26T01:00:45.260Z,996.48
2022-10-26T01:01:45.218Z,996.48
2022-10-26T01:02:45.123Z,996.44
2022-10-26T01:03:45.118Z,996.48
2022-10-26T01:04:44.985Z,996.49
2022-10-26T01:05:44.927Z,996.47
2022-10-26T01:06:44.873Z,996.50
2022-10-26T01:07:44.792Z,996.51
2022-10-26T01:08:44.737Z,996.49
2022-10-26T01:09:44.659Z,996.43
2022-10-26T01:10:44.606Z,996.44
2022-10-26T01:11:44.867Z,996.44
2022-10-26T01:12:44.480Z,996.43
2022-10-26T01:13:44.425Z,996.41
2022-10-26T01:14:44.356Z,996.40
2022-10-26T01:15:44.272Z,996.37
2022-10-26T01:16:44.245Z,996.35
2022-10-26T01:18:05.146Z,996.36
2022-10-26T01:18:44.099Z,996.30
2022-10-26T01:19:44.034Z,996.31
2022-10-26T01:20:43.972Z,996.33
2022-10-26T01:21:43.899Z,996.29
2022-10-26T01:22:43.824Z,996.31
2022-10-26T01:23:43.783Z,996.34
2022-10-26T01:24:43.714Z,996.32
2022-10-26T01:25:43.633Z,996.35
2022-10-26T01:26:43.647Z,996.31
2022-10-26T01:27:43.506Z,996.35
2022-10-26T01:28:43.441Z,996.33
2022-10-26T01:29:43.385Z,996.34
2022-10-26T01:30:43.323Z,996.32
2022-10-26T01:31:43.284Z,996.28
2022-10-26T01:32:43.184Z,996.27
2022-10-26T01:33:43.142Z,996.28
2022-10-26T01:34:43.076Z,996.26
2022-10-26T01:36:03.984Z,996.26
2022-10-26T01:36:42.930Z,996.22
2022-10-26T01:37:42.869Z,996.23
2022-10-26T01:38:42.797Z,996.23
2022-10-26T01:39:42.740Z,996.15
2022-10-26T01:40:42.684Z,996.19
2022-10-26T01:41:42.615Z,996.18
2022-10-26T01:42:42.555Z,996.20
2022-10-26T01:43:42.476Z,996.15
2022-10-26T01:44:42.422Z,996.17
2022-10-26T01:45:42.360Z,996.11
2022-10-26T01:46:42.286Z,996.09
2022-10-26T01:47:42.244Z,996.13
2022-10-26T01:48:42.154Z,996.06
2022-10-26T01:49:42.105Z,996.07
2022-10-26T01:50:42.036Z,996.01
2022-10-26T01:51:41.971Z,996.03
2022-10-26T01:52:41.892Z,996.02
2022-10-26T01:54:51.066Z,995.98
2022-10-26T01:55:52.038Z,996.02
2022-10-26T01:56:51.949Z,996.01
2022-10-26T01:57:51.988Z,996.00
2022-10-26T01:58:51.821Z,995.99
2022-10-26T01:59:51.762Z,995.98
2022-10-26T02:00:51.684Z,995.96
2022-10-26T02:01:51.704Z,995.95
2022-10-26T02:02:51.550Z,995.96
2022-10-26T02:03:51.523Z,995.93
2022-10-26T02:04:51.448Z,995.94
2022-10-26T02:05:51.363Z,995.92
2022-10-26T02:06:51.313Z,995.91
2022-10-26T02:07:51.529Z,995.94
2022-10-26T02:08:51.162Z,995.95
2022-10-26T02:09:51.115Z,995.91
2022-10-26T02:10:51.054Z,995.88
2022-10-26T02:11:51.258Z,995.88
2022-10-26T02:12:50.923Z,995.87
2022-10-26T02:13:50.856Z,995.86
2022-10-26T02:14:50.796Z,995.80
2022-10-26T02:15:50.723Z,995.85
2022-10-26T02:16:50.659Z,995.81
2022-10-26T02:17:50.854Z,995.82
2022-10-26T02:18:50.522Z,995.82
2022-10-26T02:19:50.457Z,995.80
2022-10-26T02:20:50.394Z,995.81
2022-10-26T02:21:50.342Z,995.79
2022-10-26T02:22:50.262Z,995.78
2022-10-26T02:23:50.243Z,995.80
2022-10-26T02:24:50.144Z,995.80
2022-10-26T02:25:50.073Z,995.80
2022-10-26T02:26:50.007Z,995.84
2022-10-26T02:27:50.246Z,995.82
2022-10-26T02:28:49.882Z,995.80
2022-10-26T02:31:28.778Z,995.78
2022-10-26T02:32:29.730Z,995.79
2022-10-26T02:33:29.670Z,995.81
2022-10-26T02:34:29.581Z,995.78
2022-10-26T02:35:29.528Z,995.82
2022-10-26T02:36:29.451Z,995.78
2022-10-26T02:37:29.395Z,995.73
2022-10-26T02:38:29.345Z,995.77
2022-10-26T02:39:29.269Z,995.70
2022-10-26T02:40:29.209Z,995.70
2022-10-26T02:41:29.138Z,995.73
2022-10-26T02:42:29.072Z,995.71
2022-10-26T02:43:29.046Z,995.72
2022-10-26T02:44:28.940Z,995.68
2022-10-26T02:45:28.877Z,995.64
2022-10-26T02:46:28.817Z,995.62
2022-10-26T02:47:49.969Z,995.61
2022-10-26T02:48:28.691Z,995.56
2022-10-26T02:49:28.653Z,995.57
2022-10-26T02:50:28.563Z,995.59
2022-10-26T02:51:28.503Z,995.54
2022-10-26T02:52:28.437Z,995.53
2022-10-26T02:53:28.369Z,995.51
2022-10-26T02:54:28.293Z,995.56
2022-10-26T02:55:28.228Z,995.52
2022-10-26T02:56:28.163Z,995.53
2022-10-26T02:57:28.111Z,995.50
2022-10-26T02:58:28.033Z,995.56
2022-10-26T02:59:27.995Z,995.53
2022-10-26T03:00:27.906Z,995.52
2022-10-26T03:01:27.895Z,995.52
2022-10-26T03:02:27.791Z,995.49
2022-10-26T03:03:27.712Z,995.54
2022-10-26T03:04:27.691Z,995.53
2022-10-26T03:05:27.618Z,995.49
2022-10-26T03:06:27.531Z,995.51
2022-10-26T03:07:27.465Z,995.51
2022-10-26T03:09:27.330Z,995.48
2022-10-26T03:10:27.259Z,995.53
2022-10-26T03:11:27.207Z,995.55
2022-10-26T03:12:27.143Z,995.56
2022-10-26T03:13:27.083Z,995.55
2022-10-26T03:14:27.009Z,995.52
2022-10-26T03:15:26.950Z,995.54
2022-10-26T03:16:26.893Z,995.56
2022-10-26T03:17:27.091Z,995.54
2022-10-26T03:18:26.747Z,995.58
2022-10-26T03:19:26.679Z,995.54
2022-10-26T03:20:26.619Z,995.61
2022-10-26T03:21:26.567Z,995.62
2022-10-26T03:22:26.508Z,995.63
2022-10-26T03:24:35.647Z,995.63
2022-10-26T03:25:36.604Z,995.72
2022-10-26T03:26:36.534Z,995.71
2022-10-26T03:27:36.458Z,995.68
2022-10-26T03:28:36.404Z,995.67
2022-10-26T03:29:36.341Z,995.71
2022-10-26T03:30:36.282Z,995.72
2022-10-26T03:31:36.242Z,995.65
2022-10-26T03:32:36.134Z,995.65
2022-10-26T03:33:39.107Z,995.67
2022-10-26T03:34:36.005Z,995.68
2022-10-26T03:35:35.967Z,995.66
2022-10-26T03:36:35.896Z,995.63
2022-10-26T03:37:35.827Z,995.63
2022-10-26T03:38:35.760Z,995.60
2022-10-26T03:39:35.699Z,995.60
2022-10-26T03:40:35.642Z,995.57
2022-10-26T03:41:35.596Z,995.59
2022-10-26T03:42:35.488Z,995.54
2022-10-26T03:43:35.429Z,995.56
2022-10-26T03:44:35.379Z,995.56
2022-10-26T03:45:35.293Z,995.54
2022-10-26T03:46:35.230Z,995.53
2022-10-26T03:47:35.201Z,995.53
2022-10-26T03:48:35.109Z,995.51
2022-10-26T03:49:35.087Z,995.52
2022-10-26T03:50:34.992Z,995.51
2022-10-26T03:51:34.920Z,995.53
2022-10-26T03:52:34.849Z,995.56
2022-10-26T03:53:34.817Z,995.49
2022-10-26T03:54:34.720Z,995.54
2022-10-26T03:55:34.666Z,995.58
2022-10-26T03:56:34.603Z,995.53
2022-10-26T03:57:34.521Z,995.57
2022-10-26T03:58:34.478Z,995.57
2022-10-26T04:02:03.454Z,995.50
2022-10-26T04:03:04.375Z,995.48
2022-10-26T04:04:04.347Z,995.51
2022-10-26T04:05:04.248Z,995.52
2022-10-26T04:06:04.193Z,995.51
2022-10-26T04:07:04.112Z,995.51
2022-10-26T04:08:04.085Z,995.53
2022-10-26T04:09:03.986Z,995.48
2022-10-26T04:10:03.940Z,995.47
2022-10-26T04:11:04.798Z,995.52
2022-10-26T04:12:03.815Z,995.49
2022-10-26T04:13:03.737Z,995.49
2022-10-26T04:14:03.676Z,995.49
2022-10-26T04:16:03.568Z,995.46
2022-10-26T04:17:03.484Z,995.48
2022-10-26T04:18:03.709Z,995.43
2022-10-26T04:19:03.360Z,995.49
2022-10-26T04:20:03.315Z,995.43
2022-10-26T04:21:03.211Z,995.45
2022-10-26T04:22:03.176Z,995.46
2022-10-26T04:23:03.093Z,995.44
2022-10-26T04:24:03.049Z,995.42
2022-10-26T04:25:02.955Z,995.42
2022-10-26T04:26:02.889Z,995.44
2022-10-26T04:27:02.827Z,995.46
2022-10-26T04:28:02.768Z,995.43
2022-10-26T04:29:02.697Z,995.46
2022-10-26T04:30:02.640Z,995.45
2022-10-26T04:31:02.580Z,995.45
2022-10-26T04:32:02.502Z,995.46
2022-10-26T04:33:02.439Z,995.51
2022-10-26T04:34:02.387Z,995.51
2022-10-26T04:35:02.324Z,995.48
2022-10-26T04:37:41.211Z,995.53
2022-10-26T04:38:42.117Z,995.53
2022-10-26T04:39:42.075Z,995.57
2022-10-26T04:40:42.035Z,995.55
2022-10-26T04:41:41.921Z,995.52
2022-10-26T04:42:41.891Z,995.52
2022-10-26T04:43:41.798Z,995.56
2022-10-26T04:44:41.734Z,995.52
2022-10-26T04:45:41.670Z,995.51
2022-10-26T04:46:41.614Z,995.55
2022-10-26T04:47:41.556Z,995.55
2022-10-26T04:48:41.508Z,995.52
2022-10-26T04:49:41.431Z,995.55
2022-10-26T04:50:41.353Z,995.53
2022-10-26T04:51:41.303Z,995.54
2022-10-26T04:52:41.243Z,995.49
2022-10-26T04:53:41.178Z,995.55
2022-10-26T04:55:02.090Z,995.50
2022-10-26T04:55:41.022Z,995.51
2022-10-26T04:56:40.997Z,995.49
2022-10-26T04:57:40.918Z,995.49
2022-10-26T04:58:40.848Z,995.49
2022-10-26T04:59:40.776Z,995.50
2022-10-26T05:00:40.742Z,995.51
2022-10-26T05:01:40.701Z,995.50
2022-10-26T05:02:40.578Z,995.49
2022-10-26T05:03:40.525Z,995.49
2022-10-26T05:04:40.453Z,995.51
2022-10-26T05:05:40.394Z,995.52
2022-10-26T05:06:40.378Z,995.47
2022-10-26T05:07:40.251Z,995.49
2022-10-26T05:08:40.190Z,995.53
2022-10-26T05:09:40.094Z,995.49
2022-10-26T05:10:40.068Z,995.53
2022-10-26T05:11:39.989Z,995.49
2022-10-26T05:13:00.906Z,995.45
2022-10-26T05:13:39.884Z,995.49
2022-10-26T05:14:39.811Z,995.44
2022-10-26T05:15:39.752Z,995.49
2022-10-26T05:16:39.671Z,995.50
2022-10-26T05:17:39.624Z,995.47
2022-10-26T05:18:39.828Z,995.51
2022-10-26T05:19:39.495Z,995.48
2022-10-26T05:20:39.423Z,995.50
2022-10-26T05:21:39.392Z,995.48
2022-10-26T05:22:39.292Z,995.50
2022-10-26T05:23:39.222Z,995.50
2022-10-26T05:24:39.179Z,995.51
2022-10-26T05:25:39.098Z,995.46
2022-10-26T05:26:39.029Z,995.49
2022-10-26T05:27:38.962Z,995.52
2022-10-26T05:28:38.859Z,995.50
2022-10-26T05:29:38.846Z,995.53
2022-10-26T05:32:17.767Z,995.51
2022-10-26T05:33:18.699Z,995.50
2022-10-26T05:34:18.623Z,995.53
2022-10-26T05:35:18.563Z,995.50
2022-10-26T05:36:18.488Z,995.49
2022-10-26T05:37:18.434Z,995.51
2022-10-26T05:38:18.402Z,995.50
2022-10-26T05:39:18.273Z,995.47
2022-10-26T05:40:18.177Z,995.51
2022-10-26T05:41:18.113Z,995.47
2022-10-26T05:42:18.079Z,995.49
2022-10-26T05:43:18.046Z,995.53
2022-10-26T05:44:17.932Z,995.53
2022-10-26T05:45:17.857Z,995.57
2022-10-26T05:46:17.796Z,995.52
2022-10-26T05:47:17.734Z,995.54
2022-10-26T05:48:17.671Z,995.61
2022-10-26T05:50:56.466Z,995.57
2022-10-26T05:51:57.387Z,995.59
2022-10-26T05:52:57.353Z,995.63
2022-10-26T05:53:57.275Z,995.66
2022-10-26T05:54:57.289Z,995.67
2022-10-26T05:55:57.150Z,995.68
2022-10-26T05:56:57.080Z,995.73
2022-10-26T05:57:57.029Z,995.68
2022-10-26T05:58:56.959Z,995.69
2022-10-26T05:59:56.895Z,995.74
2022-10-26T06:00:56.836Z,995.64
2022-10-26T06:01:56.923Z,995.71
2022-10-26T06:02:56.715Z,995.70
2022-10-26T06:03:56.645Z,995.68
2022-10-26T06:04:56.581Z,995.69
2022-10-26T06:05:56.505Z,995.71
2022-10-26T06:06:56.466Z,995.67
2022-10-26T06:07:56.377Z,995.68
2022-10-26T06:08:56.305Z,995.68
2022-10-26T06:09:56.248Z,995.69
2022-10-26T06:10:56.198Z,995.72
2022-10-26T06:11:56.130Z,995.66
2022-10-26T06:13:08.169Z,995.72
2022-10-26T06:14:09.061Z,995.76
2022-10-26T06:15:08.992Z,995.73
2022-10-26T06:16:08.926Z,995.74
2022-10-26T06:17:08.883Z,995.73
2022-10-26T06:18:08.840Z,995.72
2022-10-26T06:19:08.741Z,995.79
2022-10-26T06:20:08.769Z,995.79
2022-10-26T06:21:08.632Z,995.79
2022-10-26T06:22:08.570Z,995.80
2022-10-26T06:23:08.498Z,995.83
2022-10-26T06:24:08.717Z,995.88
2022-10-26T06:25:08.364Z,995.85
2022-10-26T06:26:08.304Z,995.86
2022-10-26T06:27:08.237Z,995.89
2022-10-26T06:28:08.211Z,995.89
2022-10-26T06:29:08.116Z,995.90
2022-10-26T06:30:08.070Z,995.86
2022-10-26T06:31:08.041Z,995.89
2022-10-26T06:32:07.943Z,995.90
2022-10-26T06:33:24.459Z,995.95
2022-10-26T06:34:07.815Z,995.97
2022-10-26T06:35:07.724Z,995.93
2022-10-26T06:36:07.674Z,995.92
2022-10-26T06:37:07.615Z,995.97
2022-10-26T06:38:07.540Z,995.97
2022-10-26T06:39:07.460Z,995.98
2022-10-26T06:40:07.420Z,995.98
2022-10-26T06:41:07.357Z,996.01
2022-10-26T06:42:28.266Z,995.98
2022-10-26T06:43:07.207Z,996.02
2022-10-26T06:44:07.159Z,995.96
2022-10-26T06:45:07.146Z,995.99
2022-10-26T06:46:07.027Z,995.96
2022-10-26T06:47:06.957Z,995.96
2022-10-26T06:48:06.902Z,995.97
2022-10-26T06:49:06.821Z,995.93
2022-10-26T06:50:06.779Z,995.92
2022-10-26T06:51:06.704Z,995.97
2022-10-26T06:52:06.647Z,995.92
2022-10-26T06:53:06.579Z,995.93
2022-10-26T06:54:06.510Z,995.94
2022-10-26T06:55:06.477Z,995.93
2022-10-26T06:56:06.389Z,995.88
2022-10-26T06:57:06.326Z,995.91
2022-10-26T06:58:06.265Z,995.91
2022-10-26T06:59:07.065Z,995.99
2022-10-26T07:00:06.160Z,995.95
2022-10-26T07:01:06.094Z,995.97
2022-10-26T07:02:06.719Z,995.97
2022-10-26T07:03:06.021Z,995.97
2022-10-26T07:04:05.870Z,995.95
2022-10-26T07:05:05.799Z,995.97
2022-10-26T07:06:05.798Z,996.00
2022-10-26T07:07:05.725Z,995.92
2022-10-26T07:08:05.623Z,995.96
2022-10-26T07:09:05.557Z,995.93
2022-10-26T07:10:05.495Z,995.95
2022-10-26T07:11:05.438Z,995.99
2022-10-26T07:12:05.397Z,995.95
2022-10-26T07:13:05.302Z,995.95
2022-10-26T07:14:05.237Z,995.97
2022-10-26T07:15:05.210Z,996.00
2022-10-26T07:16:05.099Z,995.94
2022-10-26T07:17:05.037Z,996.01
2022-10-26T07:18:25.961Z,995.98
2022-10-26T07:19:04.908Z,995.98
2022-10-26T07:20:04.856Z,995.98
2022-10-26T07:21:04.795Z,996.02
2022-10-26T07:22:04.732Z,995.99
2022-10-26T07:23:04.659Z,996.06
2022-10-26T07:24:04.605Z,996.03
2022-10-26T07:25:04.531Z,996.05
2022-10-26T07:26:04.591Z,996.08
2022-10-26T07:27:04.409Z,996.06
2022-10-26T07:28:04.333Z,996.13
2022-10-26T07:29:04.276Z,996.11
2022-10-26T07:30:04.488Z,996.13
2022-10-26T07:31:04.166Z,996.17
2022-10-26T07:32:04.095Z,996.16
2022-10-26T07:33:04.018Z,996.14
2022-10-26T07:34:03.942Z,996.14
2022-10-26T07:35:03.885Z,996.14
2022-10-26T07:36:03.930Z,996.12
2022-10-26T07:37:03.775Z,996.15
2022-10-26T07:38:03.697Z,996.11
2022-10-26T07:39:03.629Z,996.15
2022-10-26T07:40:06.522Z,996.16
2022-10-26T07:41:03.530Z,996.13
2022-10-26T07:42:03.642Z,996.12
2022-10-26T07:43:03.383Z,996.11
2022-10-26T07:44:03.320Z,996.15
2022-10-26T07:45:03.260Z,996.14
2022-10-26T07:46:03.254Z,996.19
2022-10-26T07:47:03.118Z,996.22
2022-10-26T07:48:03.090Z,996.24
2022-10-26T07:49:03.006Z,996.25
2022-10-26T07:50:02.960Z,996.27
2022-10-26T07:51:03.310Z,996.26
2022-10-26T07:52:02.806Z,996.20
2022-10-26T07:53:02.760Z,996.18
2022-10-26T07:55:11.846Z,996.19
2022-10-26T07:56:12.811Z,996.23
2022-10-26T07:57:12.717Z,996.24
2022-10-26T07:58:12.651Z,996.23
2022-10-26T07:59:12.589Z,996.21
2022-10-26T08:00:12.552Z,996.24
2022-10-26T08:01:12.618Z,996.17
2022-10-26T08:02:12.486Z,996.15
2022-10-26T08:03:12.323Z,996.18
2022-10-26T08:04:12.252Z,996.19
2022-10-26T08:05:12.210Z,996.21
2022-10-26T08:06:12.152Z,996.21
2022-10-26T08:07:12.079Z,996.22
2022-10-26T08:08:12.009Z,996.17
2022-10-26T08:09:11.938Z,996.18
2022-10-26T08:10:11.883Z,996.16
2022-10-26T08:11:11.820Z,996.16
2022-10-26T08:14:51.532Z,996.23
2022-10-26T08:15:51.459Z,996.23
2022-10-26T08:16:51.410Z,996.22
2022-10-26T08:17:51.703Z,996.19
2022-10-26T08:18:51.278Z,996.20
2022-10-26T08:19:51.213Z,996.21
2022-10-26T08:20:51.155Z,996.25
2022-10-26T08:21:51.076Z,996.28
2022-10-26T08:22:51.321Z,996.30
2022-10-26T08:23:50.998Z,996.28
2022-10-26T08:24:50.896Z,996.30
2022-10-26T08:25:50.823Z,996.28
2022-10-26T08:26:50.765Z,996.27
2022-10-26T08:27:50.695Z,996.26
2022-10-26T08:28:50.670Z,996.33
2022-10-26T08:29:50.585Z,996.31
2022-10-26T08:30:50.499Z,996.35
2022-10-26T08:31:50.442Z,996.39
2022-10-26T08:32:50.714Z,996.37
2022-10-26T08:33:50.300Z,996.38
2022-10-26T08:34:50.261Z,996.34
2022-10-26T08:35:50.224Z,996.33
2022-10-26T08:36:50.128Z,996.32
2022-10-26T08:37:50.074Z,996.34
2022-10-26T08:38:50.056Z,996.34
2022-10-26T08:39:53.557Z,996.35
2022-10-26T08:40:49.881Z,996.33
2022-10-26T08:41:49.809Z,996.31
2022-10-26T08:42:50.047Z,996.31
2022-10-26T08:43:49.700Z,996.32
2022-10-26T08:44:49.599Z,996.32
2022-10-26T08:45:49.540Z,996.30
2022-10-26T08:46:49.486Z,996.31
2022-10-26T08:47:49.667Z,996.35
2022-10-26T08:48:49.364Z,996.37
2022-10-26T08:49:49.281Z,996.32
2022-10-26T08:50:49.229Z,996.37
2022-10-26T08:51:49.173Z,996.36
2022-10-26T08:52:49.110Z,996.35
2022-10-26T08:53:49.048Z,996.32
2022-10-26T08:54:48.967Z,996.35
2022-10-26T08:55:48.926Z,996.38
2022-10-26T08:56:50.901Z,996.38
2022-10-26T08:57:49.064Z,996.33
2022-10-26T08:58:48.712Z,996.28
2022-10-26T08:59:48.686Z,996.25
2022-10-26T09:00:48.668Z,996.20
2022-10-26T09:01:48.561Z,996.21
2022-10-26T09:02:48.465Z,996.22
2022-10-26T09:03:48.415Z,996.19
2022-10-26T09:04:48.348Z,996.20
2022-10-26T09:07:27.129Z,996.21
2022-10-26T09:08:28.056Z,996.20
2022-10-26T09:09:27.995Z,996.18
2022-10-26T09:11:27.858Z,996.21
2022-10-26T09:12:27.815Z,996.24
2022-10-26T09:13:27.749Z,996.27
2022-10-26T09:14:27.688Z,996.26
2022-10-26T09:15:27.610Z,996.24
2022-10-26T09:16:27.564Z,996.26
2022-10-26T09:17:27.492Z,996.23
2022-10-26T09:18:27.426Z,996.26
2022-10-26T09:19:27.352Z,996.25
2022-10-26T09:20:27.289Z,996.28
2022-10-26T09:21:27.226Z,996.26
2022-10-26T09:22:27.172Z,996.28
2022-10-26T09:23:27.095Z,996.31
2022-10-26T09:24:48.019Z,996.33
2022-10-26T09:25:26.982Z,996.33
2022-10-26T09:26:26.922Z,996.32
2022-10-26T09:27:26.852Z,996.39
2022-10-26T09:28:26.796Z,996.33
2022-10-26T09:29:26.724Z,996.35
2022-10-26T09:30:26.671Z,996.37
2022-10-26T09:31:26.588Z,996.39
2022-10-26T09:32:26.539Z,996.40
2022-10-26T09:33:26.472Z,996.41
2022-10-26T09:34:26.405Z,996.43
2022-10-26T09:35:26.356Z,996.42
2022-10-26T09:36:26.311Z,996.41
2022-10-26T09:37:26.224Z,996.41
2022-10-26T09:38:26.142Z,996.38
2022-10-26T09:39:26.082Z,996.43
2022-10-26T09:40:26.018Z,996.44
2022-10-26T09:41:28.220Z,996.40
2022-10-26T09:42:46.891Z,996.42
2022-10-26T09:43:25.820Z,996.40
2022-10-26T09:44:25.780Z,996.43
2022-10-26T09:45:25.704Z,996.43
2022-10-26T09:46:25.643Z,996.47
2022-10-26T09:47:25.578Z,996.42
2022-10-26T09:48:25.537Z,996.43
2022-10-26T09:49:25.448Z,996.49
2022-10-26T09:50:25.379Z,996.48
2022-10-26T09:51:25.321Z,996.53
2022-10-26T09:52:25.262Z,996.55
2022-10-26T09:53:25.203Z,996.56
2022-10-26T09:54:25.141Z,996.59
2022-10-26T09:55:25.063Z,996.61
2022-10-26T09:56:24.994Z,996.62
2022-10-26T09:57:24.945Z,996.60
2022-10-26T09:58:24.881Z,996.64
2022-10-26T09:59:24.818Z,996.64
2022-10-26T10:00:24.866Z,996.62
2022-10-26T10:01:24.708Z,996.62
2022-10-26T10:02:24.709Z,996.61
2022-10-26T10:03:24.567Z,996.68
2022-10-26T10:04:24.499Z,996.69
2022-10-26T10:05:39.142Z,996.65
2022-10-26T10:06:24.386Z,996.69
2022-10-26T10:07:24.307Z,996.62
2022-10-26T10:08:24.248Z,996.61
2022-10-26T10:09:24.190Z,996.61
2022-10-26T10:10:24.123Z,996.59
2022-10-26T10:11:24.081Z,996.60
2022-10-26T10:12:23.981Z,996.56
2022-10-26T10:13:23.954Z,996.57
2022-10-26T10:14:23.852Z,996.62
2022-10-26T10:15:23.786Z,996.62
2022-10-26T10:16:23.740Z,996.63
2022-10-26T10:17:23.683Z,996.68
2022-10-26T10:18:23.805Z,996.68
2022-10-26T10:19:23.547Z,996.68
2022-10-26T10:20:23.477Z,996.63
2022-10-26T10:21:23.415Z,996.60
2022-10-26T10:22:23.353Z,996.59
2022-10-26T10:23:23.277Z,996.58
2022-10-26T10:24:23.228Z,996.58
2022-10-26T10:25:23.234Z,996.57
2022-10-26T10:26:23.102Z,996.59
2022-10-26T10:27:23.035Z,996.53
2022-10-26T10:28:22.971Z,996.56
2022-10-26T10:29:22.900Z,996.52
2022-10-26T10:30:22.858Z,996.50
2022-10-26T10:31:22.762Z,996.49
2022-10-26T10:32:22.732Z,996.49
2022-10-26T10:33:22.651Z,996.55
2022-10-26T10:34:22.587Z,996.54
2022-10-26T10:35:22.515Z,996.55
2022-10-26T10:36:22.467Z,996.53
2022-10-26T10:37:22.400Z,996.56
2022-10-26T10:38:22.321Z,996.56
2022-10-26T10:39:22.301Z,996.63
2022-10-26T10:40:22.198Z,996.61
2022-10-26T10:41:22.157Z,996.60
2022-10-26T10:42:22.131Z,996.61
2022-10-26T10:43:22.036Z,996.57
2022-10-26T10:44:21.937Z,996.58
2022-10-26T10:45:21.905Z,996.61
2022-10-26T10:46:21.837Z,996.63
2022-10-26T10:47:21.775Z,996.62
2022-10-26T10:48:21.715Z,996.68
2022-10-26T10:49:21.634Z,996.70
2022-10-26T10:50:21.585Z,996.76
2022-10-26T10:51:21.508Z,996.75
2022-10-26T10:52:21.456Z,996.75
2022-10-26T10:53:21.375Z,996.78
2022-10-26T10:54:42.292Z,996.77
2022-10-26T10:55:21.246Z,996.80
2022-10-26T10:56:21.187Z,996.78
2022-10-26T10:57:21.125Z,996.79
2022-10-26T10:58:21.092Z,996.80
2022-10-26T10:59:21.025Z,996.74
2022-10-26T11:00:20.984Z,996.77
2022-10-26T11:01:20.974Z,996.74
2022-10-26T11:02:20.994Z,996.79
2022-10-26T11:03:24.929Z,996.75
2022-10-26T11:04:20.673Z,996.74
2022-10-26T11:05:23.377Z,996.72
2022-10-26T11:06:20.565Z,996.74
2022-10-26T11:07:20.487Z,996.74
2022-10-26T11:08:20.427Z,996.78
2022-10-26T11:09:20.368Z,996.77
2022-10-26T11:10:20.284Z,996.80
2022-10-26T11:11:20.249Z,996.74
2022-10-26T11:12:20.189Z,996.79
2022-10-26T11:13:20.109Z,996.74
2022-10-26T11:14:20.042Z,996.74
2022-10-26T11:15:19.965Z,996.73
2022-10-26T11:16:19.898Z,996.74
2022-10-26T11:17:19.858Z,996.75
2022-10-26T11:18:19.789Z,996.67
2022-10-26T11:19:19.734Z,996.69
2022-10-26T11:20:19.646Z,996.67
2022-10-26T11:21:19.602Z,996.68
2022-10-26T11:22:19.531Z,996.65
2022-10-26T11:23:19.460Z,996.70
2022-10-26T11:24:19.418Z,996.69
2022-10-26T11:25:19.328Z,996.67
2022-10-26T11:26:19.273Z,996.67
2022-10-26T11:27:19.212Z,996.67
2022-10-26T11:28:19.140Z,996.66
2022-10-26T11:29:19.101Z,996.68
2022-10-26T11:30:19.033Z,996.70
2022-10-26T11:31:18.961Z,996.69
2022-10-26T11:32:18.909Z,996.70
2022-10-26T11:33:18.838Z,996.71
2022-10-26T11:34:18.771Z,996.73
2022-10-26T11:35:18.707Z,996.74
2022-10-26T11:36:21.153Z,996.67
2022-10-26T11:37:18.576Z,996.69
2022-10-26T11:38:23.945Z,996.69
2022-10-26T11:39:19.942Z,996.63
2022-10-26T11:40:18.378Z,996.66
2022-10-26T11:41:18.329Z,996.60
2022-10-26T11:42:18.272Z,996.64
2022-10-26T11:43:18.207Z,996.62
2022-10-26T11:44:18.136Z,996.69
2022-10-26T11:45:18.096Z,996.67
2022-10-26T11:46:19.178Z,996.75
2022-10-26T11:47:17.945Z,996.72
2022-10-26T11:48:38.852Z,996.73
2022-10-26T11:49:17.812Z,996.74
2022-10-26T11:50:17.895Z,996.82
2022-10-26T11:51:17.710Z,996.77
2022-10-26T11:52:17.644Z,996.80
2022-10-26T11:53:17.568Z,996.77
2022-10-26T11:54:17.562Z,996.74
2022-10-26T11:55:17.451Z,996.71
2022-10-26T11:56:17.371Z,996.65
2022-10-26T11:57:17.307Z,996.70
2022-10-26T11:58:17.239Z,996.70
2022-10-26T11:59:17.190Z,996.70
2022-10-26T12:00:17.129Z,996.60
2022-10-26T12:01:17.107Z,996.65
2022-10-26T12:02:17.010Z,996.59
2022-10-26T12:03:16.942Z,996.68
2022-10-26T12:04:16.860Z,996.70
2022-10-26T12:05:16.795Z,996.74
2022-10-26T12:06:16.741Z,996.73
2022-10-26T12:07:16.690Z,996.76
2022-10-26T12:08:16.606Z,996.75
2022-10-26T12:09:16.547Z,996.72
2022-10-26T12:10:19.278Z,996.75
2022-10-26T12:11:16.442Z,996.71
2022-10-26T12:12:16.403Z,996.72
2022-10-26T12:13:16.310Z,996.67
2022-10-26T12:14:16.233Z,996.66
2022-10-26T12:15:16.189Z,996.73
2022-10-26T12:16:16.207Z,996.65
2022-10-26T12:17:16.043Z,996.66
2022-10-26T12:18:16.113Z,996.70
2022-10-26T12:19:15.945Z,996.69
2022-10-26T12:20:15.854Z,996.72
2022-10-26T12:21:15.844Z,996.70
2022-10-26T12:22:15.737Z,996.77
2022-10-26T12:23:23.169Z,996.70
2022-10-26T12:24:36.626Z,996.68
2022-10-26T12:25:15.791Z,996.76
2022-10-26T12:26:15.516Z,996.78
2022-10-26T12:27:15.428Z,996.73
2022-10-26T12:28:15.360Z,996.79
2022-10-26T12:29:15.295Z,996.80
2022-10-26T12:30:15.286Z,996.81
2022-10-26T12:31:15.176Z,996.85
2022-10-26T12:32:15.167Z,996.86
2022-10-26T12:33:15.068Z,996.73
2022-10-26T12:34:14.986Z,996.77
2022-10-26T12:35:14.920Z,996.79
2022-10-26T12:36:14.875Z,996.82
2022-10-26T12:37:14.816Z,996.76
2022-10-26T12:38:14.735Z,996.82
2022-10-26T12:39:14.689Z,996.85
2022-10-26T12:40:14.641Z,996.83
2022-10-26T12:41:14.529Z,996.84
2022-10-26T12:42:35.452Z,996.84
2022-10-26T12:43:14.441Z,996.82
2022-10-26T12:44:14.340Z,996.82
2022-10-26T12:45:14.281Z,996.83
2022-10-26T12:46:14.221Z,996.90
2022-10-26T12:47:14.165Z,996.90
2022-10-26T12:48:27.738Z,996.97
2022-10-26T12:49:14.035Z,996.97